Main page
METAR-TAF:

METAR-TAF

Airports :

Mihail Kogălniceanu International Airport

Constanţa, Romania

latitude: 44-20N, longitude: 028-26E, elevation: 97 m

Current weather observation

The report was made 35 minutes ago, at 08:00 UTC
Wind 4 kt from variable directions
Temperature 9°C
Humidity 37%
Pressure 1016 hPa
Visibility 10 km or more
no clouds below 1500 m and no cumulonimbus

METAR: LRCK 030800Z VRB04KT CAVOK 09/M05 Q1016 NOSIG

Time: 11:35 (08:35 UTC)

Forecast

The report was made 3 hours and 35 minutes ago, at 05:00 UTC
Forecast valid from 03 at 06 UTC to 04 at 06 UTC
Wind 4 kt from variable directions
Visibility 10 km or more
no clouds below 1500 m and no cumulonimbus
Becoming
from 03 at 10 UTC to 03 at 12 UTC
Wind 12 kt from the South/Southeast
Becoming
from 03 at 22 UTC to 03 at 24 UTC
Wind 4 kt from variable directions
Temporary
from 04 at 02 UTC to 04 at 06 UTC
Visibility: 5000 m
mist

TAF: LRCK 030500Z 0306/0406 VRB04KT CAVOK BECMG 0310/0312 16012KT BECMG 0322/0324 VRB04KT TEMPO 0402/0406 5000 BR

Weather observations and forecasts of more than 4000 airports (METAR and TAF reports).

The available stations are represented by yellow and red dots on the map.

Hover mouse over dot to see the name of the station.

Then click to see weather observations and forecasts.

To change the map : click on the green buttons with a black cross to zoom in, on the green button with a dash to zoom out, or on the green arrows for adjacent maps.


METAR-TAF: